Time;durP1;ratioP1;P1;durP2;ratioP2;P2;SDS_P1;SDS_P2;PMS_P1;PMS_P2;Temp;Humidity;BMP_temperature;BMP_pressure;BME280_temperature;BME280_humidity;BME280_pressure;Samples;Min_cycle;Max_cycle;Signal;HPM_P1;HPM_P2
2020/12/10 00:01:37;;;;;;;21.55;12.95;;;2.40;99.90;;;;;;4992344;28;20267;-87
2020/12/10 00:04:04;;;;;;;27.55;15.38;;;2.40;99.90;;;;;;4994055;28;20208;-87
2020/12/10 00:06:31;;;;;;;25.00;12.35;;;2.30;99.90;;;;;;4993788;28;20331;-88
2020/12/10 00:08:57;;;;;;;26.27;15.02;;;2.30;99.90;;;;;;4993879;28;20204;-87
2020/12/10 00:11:24;;;;;;;19.30;11.20;;;2.40;99.90;;;;;;4993647;28;20210;-87
2020/12/10 00:13:50;;;;;;;19.08;13.75;;;2.30;99.90;;;;;;4993885;28;20201;-87
2020/12/10 00:16:17;;;;;;;24.13;13.93;;;2.30;99.90;;;;;;4999850;28;20211;-87
2020/12/10 00:18:43;;;;;;;27.80;14.15;;;2.30;99.90;;;;;;5013053;28;20719;-87
2020/12/10 00:21:09;;;;;;;20.95;12.05;;;2.30;99.90;;;;;;5013225;28;20292;-86
2020/12/10 00:23:36;;;;;;;24.40;13.85;;;2.40;99.90;;;;;;5013300;28;20200;-87
2020/12/10 00:26:03;;;;;;;23.67;12.98;;;2.30;99.90;;;;;;5013084;28;20235;-87
2020/12/10 00:28:29;;;;;;;26.42;14.77;;;2.20;99.90;;;;;;5013243;28;20207;-84
2020/12/10 00:30:56;;;;;;;25.98;13.25;;;2.20;99.90;;;;;;5013182;28;20632;-84
2020/12/10 00:33:22;;;;;;;27.23;13.43;;;2.10;99.90;;;;;;5011920;28;20203;-84
2020/12/10 00:35:48;;;;;;;26.83;14.95;;;2.20;99.90;;;;;;5012961;28;20298;-84
2020/12/10 00:38:15;;;;;;;25.23;14.90;;;2.30;99.90;;;;;;5012936;28;20210;-82
2020/12/10 00:40:42;;;;;;;22.27;13.60;;;2.30;99.90;;;;;;5012535;28;20209;-83
2020/12/10 00:43:08;;;;;;;20.73;11.95;;;2.40;99.90;;;;;;5011726;28;20294;-83
2020/12/10 00:45:35;;;;;;;25.77;13.45;;;2.40;99.90;;;;;;5013078;28;20237;-82
2020/12/10 00:48:01;;;;;;;27.25;14.23;;;2.40;99.90;;;;;;5011846;28;20392;-85
2020/12/10 00:50:27;;;;;;;27.08;14.10;;;2.50;99.90;;;;;;5012849;28;20203;-85
2020/12/10 00:52:54;;;;;;;22.30;12.57;;;2.40;99.90;;;;;;5012946;28;20633;-86
2020/12/10 00:55:20;;;;;;;25.58;13.70;;;2.30;99.90;;;;;;5009441;28;20230;-85
2020/12/10 00:57:49;;;;;;;31.70;15.80;;;2.40;99.90;;;;;;5012636;28;20203;-85
2020/12/10 01:00:16;;;;;;;26.33;13.00;;;2.40;99.90;;;;;;5013113;28;20215;-86
2020/12/10 01:02:43;;;;;;;27.20;13.95;;;2.40;99.90;;;;;;5011711;28;20326;-85
2020/12/10 01:05:09;;;;;;;23.23;12.43;;;2.20;99.90;;;;;;5012693;28;20223;-86
2020/12/10 01:07:36;;;;;;;29.67;14.57;;;2.20;99.90;;;;;;5012925;28;20667;-85
2020/12/10 01:10:04;;;;;;;30.15;14.27;;;2.20;99.90;;;;;;5012680;28;20210;-86
2020/12/10 01:12:31;;;;;;;26.15;13.90;;;2.30;99.90;;;;;;5012649;28;20639;-84
2020/12/10 01:14:58;;;;;;;20.83;12.70;;;2.30;99.90;;;;;;5016690;28;20215;-86
2020/12/10 01:17:24;;;;;;;25.50;12.63;;;2.30;99.90;;;;;;5015550;28;20203;-86
2020/12/10 01:19:51;;;;;;;30.95;14.13;;;2.40;99.90;;;;;;5016544;28;20700;-86
2020/12/10 01:22:17;;;;;;;27.48;13.32;;;2.30;99.90;;;;;;5016549;28;20298;-86
2020/12/10 01:24:44;;;;;;;25.25;14.52;;;2.30;99.90;;;;;;5016100;28;20237;-86
2020/12/10 01:27:10;;;;;;;22.92;12.18;;;2.40;99.90;;;;;;5016596;28;20225;-85
2020/12/10 01:29:36;;;;;;;22.50;12.88;;;2.40;99.90;;;;;;5016946;28;20203;-85
2020/12/10 01:32:04;;;;;;;20.63;11.38;;;2.40;99.90;;;;;;5015025;28;20207;-86
2020/12/10 01:34:30;;;;;;;28.55;15.52;;;2.30;99.90;;;;;;5016615;28;20207;-86
2020/12/10 01:36:56;;;;;;;21.15;12.85;;;2.20;99.90;;;;;;5016540;28;20302;-84
2020/12/10 01:39:23;;;;;;;23.90;11.82;;;2.30;99.90;;;;;;5016556;28;20726;-88
2020/12/10 01:41:49;;;;;;;24.27;12.50;;;2.40;99.90;;;;;;5016013;28;20204;-86
2020/12/10 01:44:15;;;;;;;26.42;15.10;;;2.40;99.90;;;;;;5017243;28;20294;-86
2020/12/10 01:46:43;;;;;;;23.90;13.98;;;2.30;99.90;;;;;;5030159;28;20262;-86
2020/12/10 01:49:10;;;;;;;28.13;14.85;;;2.30;99.90;;;;;;5038446;28;20242;-85
2020/12/10 01:51:37;;;;;;;23.25;13.82;;;2.30;99.90;;;;;;5033908;28;20230;-85
2020/12/10 01:54:05;;;;;;;27.00;14.02;;;2.30;99.90;;;;;;5017350;28;20204;-85
2020/12/10 01:56:31;;;;;;;23.17;12.60;;;2.30;99.90;;;;;;5016353;28;20573;-86
2020/12/10 01:59:00;;;;;;;27.42;15.23;;;2.20;99.90;;;;;;5016385;28;20231;-86
2020/12/10 02:01:28;;;;;;;29.60;13.40;;;2.30;99.90;;;;;;5014721;28;20235;-86
2020/12/10 02:03:55;;;;;;;26.63;13.38;;;2.30;99.90;;;;;;5016090;28;20219;-85
2020/12/10 02:06:22;;;;;;;20.92;12.07;;;2.30;99.90;;;;;;5015854;28;20234;-85
2020/12/10 02:08:49;;;;;;;26.15;13.52;;;2.40;99.90;;;;;;5015827;28;20294;-87
2020/12/10 02:11:15;;;;;;;26.95;13.77;;;2.40;99.90;;;;;;5015435;28;20209;-86
2020/12/10 02:13:42;;;;;;;22.35;12.77;;;2.40;99.90;;;;;;5015874;28;20216;-86
2020/12/10 02:16:09;;;;;;;15.65;11.15;;;2.40;99.90;;;;;;5015532;28;20203;-85
2020/12/10 02:18:36;;;;;;;23.85;12.85;;;2.30;99.90;;;;;;5014426;28;20204;-86
2020/12/10 02:21:03;;;;;;;23.98;12.43;;;2.20;99.90;;;;;;5015333;28;20219;-85
2020/12/10 02:23:30;;;;;;;22.83;13.25;;;2.20;99.90;;;;;;5015625;28;20204;-86
2020/12/10 02:25:56;;;;;;;26.48;12.25;;;2.10;99.90;;;;;;5014464;28;20242;-85
2020/12/10 02:28:23;;;;;;;20.13;13.13;;;2.10;99.90;;;;;;5015321;28;20200;-86
2020/12/10 02:30:49;;;;;;;24.60;13.60;;;2.10;99.90;;;;;;5015210;28;20221;-86
2020/12/10 02:33:17;;;;;;;17.48;10.95;;;2.10;99.90;;;;;;5013920;28;20586;-86
2020/12/10 02:35:44;;;;;;;30.15;14.68;;;2.10;99.90;;;;;;5015266;28;20208;-85
2020/12/10 02:38:12;;;;;;;22.23;13.13;;;2.10;99.90;;;;;;5015058;28;20204;-86
2020/12/10 02:40:41;;;;;;;25.95;14.55;;;2.10;99.90;;;;;;5014100;28;20214;-85
2020/12/10 02:43:10;;;;;;;21.95;13.27;;;2.10;99.90;;;;;;5015174;28;20210;-86
2020/12/10 02:45:37;;;;;;;22.65;13.02;;;2.00;99.90;;;;;;5014784;28;20236;-85
2020/12/10 02:48:04;;;;;;;24.98;13.50;;;2.00;99.90;;;;;;5014082;28;20204;-86
2020/12/10 02:50:30;;;;;;;29.25;13.70;;;2.10;99.90;;;;;;5015097;28;20643;-85
2020/12/10 02:52:57;;;;;;;29.15;14.23;;;2.20;99.90;;;;;;5015163;28;20199;-85
2020/12/10 02:55:23;;;;;;;29.00;14.70;;;2.10;99.90;;;;;;5014571;28;20214;-85
2020/12/10 02:57:50;;;;;;;25.77;12.77;;;2.10;99.90;;;;;;5014394;28;20783;-85
2020/12/10 03:00:17;;;;;;;27.13;11.75;;;2.00;99.90;;;;;;5014845;28;20204;-85
2020/12/10 03:02:43;;;;;;;28.67;15.73;;;2.10;99.90;;;;;;5013735;28;20207;-86
2020/12/10 03:05:09;;;;;;;22.88;12.70;;;2.10;99.90;;;;;;5013551;28;20227;-86
2020/12/10 03:07:36;;;;;;;18.80;11.25;;;2.10;99.90;;;;;;5014635;28;20303;-86
2020/12/10 03:10:03;;;;;;;21.17;12.10;;;2.10;99.90;;;;;;5014493;28;20208;-86
2020/12/10 03:12:29;;;;;;;22.85;10.00;;;2.10;99.90;;;;;;5014475;28;20290;-86
2020/12/10 03:14:56;;;;;;;17.17;10.75;;;2.30;99.90;;;;;;5014740;28;20294;-86
2020/12/10 03:17:22;;;;;;;18.30;9.75;;;2.20;99.90;;;;;;5013180;28;20292;-85
2020/12/10 03:19:49;;;;;;;18.95;11.05;;;2.10;99.90;;;;;;5014566;28;20290;-86
2020/12/10 03:22:15;;;;;;;19.95;9.57;;;2.20;99.90;;;;;;5014201;28;20204;-85
2020/12/10 03:24:42;;;;;;;22.50;10.90;;;2.20;99.90;;;;;;5014478;28;20239;-85
2020/12/10 03:27:09;;;;;;;20.25;11.57;;;2.30;99.90;;;;;;5013837;28;20676;-87
2020/12/10 03:29:36;;;;;;;23.48;11.73;;;2.20;99.90;;;;;;5012553;28;20218;-87
2020/12/10 03:32:04;;;;;;;25.23;14.90;;;2.10;99.90;;;;;;5007736;28;20211;-87
2020/12/10 03:34:31;;;;;;;26.35;14.63;;;2.20;99.90;;;;;;5014055;28;20199;-86
2020/12/10 03:36:59;;;;;;;23.02;13.48;;;2.20;99.90;;;;;;5012943;28;20203;-86
2020/12/10 03:39:27;;;;;;;32.53;14.18;;;2.10;99.90;;;;;;5013942;28;20207;-85
2020/12/10 03:41:54;;;;;;;24.48;12.30;;;2.10;99.90;;;;;;5013669;28;20301;-86
2020/12/10 03:44:20;;;;;;;22.48;11.60;;;2.10;99.90;;;;;;5014024;28;20200;-86
2020/12/10 03:46:47;;;;;;;27.42;13.70;;;2.00;99.90;;;;;;5012362;28;20321;-86
2020/12/10 03:49:14;;;;;;;23.67;12.80;;;2.00;99.90;;;;;;5013832;28;20204;-86
2020/12/10 03:51:41;;;;;;;27.13;14.43;;;2.10;99.90;;;;;;5013776;28;20199;-86
2020/12/10 03:54:07;;;;;;;20.38;12.80;;;2.00;99.90;;;;;;5010676;28;20234;-85
2020/12/10 03:56:34;;;;;;;24.70;12.75;;;2.10;99.90;;;;;;5013540;28;20227;-86
2020/12/10 03:59:01;;;;;;;25.02;12.95;;;2.10;99.90;;;;;;4962900;28;20237;-84
2020/12/10 04:01:28;;;;;;;26.15;13.43;;;2.10;99.90;;;;;;5012294;28;20294;-84
2020/12/10 04:03:54;;;;;;;27.27;13.75;;;2.10;99.90;;;;;;5013651;28;20203;-84
2020/12/10 04:06:22;;;;;;;20.98;12.73;;;2.10;99.90;;;;;;5013432;28;20271;-83
2020/12/10 04:08:48;;;;;;;22.55;14.23;;;2.10;99.90;;;;;;4961906;28;20207;-84
2020/12/10 04:11:15;;;;;;;28.13;12.43;;;2.10;99.90;;;;;;5013362;28;20250;-84
2020/12/10 04:13:41;;;;;;;27.15;13.23;;;2.10;99.90;;;;;;5013369;28;20235;-84
2020/12/10 04:16:08;;;;;;;22.90;14.43;;;2.10;99.90;;;;;;5013313;28;20242;-84
2020/12/10 04:18:37;;;;;;;22.90;12.00;;;2.10;99.90;;;;;;5012142;28;20213;-85
2020/12/10 04:21:04;;;;;;;23.02;15.60;;;2.10;99.90;;;;;;5013208;28;20625;-85
2020/12/10 04:23:31;;;;;;;25.80;13.43;;;2.10;99.90;;;;;;5013190;28;20208;-85
2020/12/10 04:25:57;;;;;;;17.92;11.30;;;2.10;99.90;;;;;;5010081;28;20330;-85
2020/12/10 04:28:24;;;;;;;17.67;10.52;;;2.20;99.90;;;;;;5013238;28;20636;-86
2020/12/10 04:30:50;;;;;;;20.73;12.45;;;2.20;99.90;;;;;;5013350;28;20625;-85
2020/12/10 04:33:17;;;;;;;16.95;10.25;;;2.30;99.90;;;;;;5011937;28;20338;-85
2020/12/10 04:35:44;;;;;;;23.45;14.10;;;2.20;99.90;;;;;;5013036;28;20298;-84
2020/12/10 04:38:10;;;;;;;26.55;12.88;;;2.20;99.90;;;;;;5012889;28;20204;-84
2020/12/10 04:40:38;;;;;;;19.58;11.30;;;2.10;99.90;;;;;;5012933;28;20203;-85
2020/12/10 04:43:06;;;;;;;25.25;15.02;;;2.10;99.90;;;;;;5013386;28;20298;-85
2020/12/10 04:45:32;;;;;;;29.02;16.77;;;2.20;99.90;;;;;;5013009;28;20253;-85
2020/12/10 04:48:00;;;;;;;27.83;14.70;;;2.20;99.90;;;;;;5011560;28;20677;-85
2020/12/10 04:50:29;;;;;;;30.48;13.48;;;2.10;99.90;;;;;;5012842;28;20203;-84
2020/12/10 04:52:55;;;;;;;24.08;13.88;;;2.10;99.90;;;;;;5012963;28;20203;-84
2020/12/10 04:55:23;;;;;;;19.92;11.15;;;2.00;99.90;;;;;;5012823;28;20215;-85
2020/12/10 04:57:53;;;;;;;20.38;12.43;;;2.00;99.90;;;;;;5012721;28;20294;-85
2020/12/10 05:00:21;;;;;;;22.10;15.55;;;2.00;99.90;;;;;;5012930;28;20294;-84
2020/12/10 05:02:47;;;;;;;31.70;16.10;;;2.10;99.90;;;;;;5011895;28;20203;-85
2020/12/10 05:05:25;;;;;;;22.58;13.48;;;2.10;99.90;;;;;;5012988;28;20274;-84
2020/12/10 05:07:51;;;;;;;42.08;20.95;;;2.10;99.90;;;;;;5012711;28;20221;-85
2020/12/10 05:10:17;;;;;;;50.53;29.15;;;2.10;99.90;;;;;;5022541;28;20299;-84
2020/12/10 05:12:45;;;;;;;45.08;24.60;;;2.20;99.90;;;;;;4977970;28;20203;-84
2020/12/10 05:15:12;;;;;;;41.53;21.35;;;2.10;99.90;;;;;;5022221;28;20279;-83
2020/12/10 05:17:39;;;;;;;21.75;14.10;;;2.10;99.90;;;;;;5021827;28;20294;-84
2020/12/10 05:20:06;;;;;;;30.75;19.58;;;2.10;99.90;;;;;;4963127;28;20229;-85
2020/12/10 05:22:34;;;;;;;26.75;15.13;;;2.00;99.90;;;;;;5013236;28;20594;-85
2020/12/10 05:25:01;;;;;;;25.75;14.38;;;2.10;99.90;;;;;;5012574;28;20298;-85
2020/12/10 05:27:28;;;;;;;22.88;14.25;;;2.10;99.90;;;;;;5012411;28;20199;-85
2020/12/10 05:29:55;;;;;;;22.20;14.15;;;2.10;99.90;;;;;;5012449;28;20214;-86
2020/12/10 05:32:46;;;;;;;24.48;14.32;;;2.10;99.90;;;;;;5011695;28;20215;-85
2020/12/10 05:35:21;;;;;;;18.02;13.30;;;2.20;99.90;;;;;;4958819;28;20212;-85
2020/12/10 05:37:49;;;;;;;23.88;14.40;;;2.20;99.90;;;;;;4973548;28;20215;-85
2020/12/10 05:40:16;;;;;;;20.30;12.68;;;2.10;99.90;;;;;;4973764;28;20212;-86
2020/12/10 05:42:44;;;;;;;22.50;12.60;;;2.10;99.90;;;;;;4973325;28;20215;-86
2020/12/10 05:45:15;;;;;;;23.98;13.18;;;2.10;99.90;;;;;;4973541;28;22180;-86
2020/12/10 05:47:46;;;;;;;22.42;13.13;;;2.10;99.90;;;;;;4972447;28;20212;-85
2020/12/10 05:50:13;;;;;;;18.83;12.52;;;2.10;99.90;;;;;;4973553;28;20653;-85
2020/12/10 05:52:48;;;;;;;25.75;13.88;;;2.00;99.90;;;;;;4973442;28;20292;-86
2020/12/10 05:55:17;;;;;;;22.15;12.32;;;2.10;99.90;;;;;;4973164;28;20212;-85
2020/12/10 05:57:44;;;;;;;24.77;13.80;;;2.10;99.90;;;;;;4972806;28;20211;-85
2020/12/10 06:00:10;;;;;;;25.55;14.77;;;2.10;99.90;;;;;;4974140;28;20209;-85
2020/12/10 06:02:40;;;;;;;22.13;12.60;;;2.10;99.90;;;;;;4975682;28;20303;-85
2020/12/10 06:05:09;;;;;;;23.50;12.48;;;2.10;99.90;;;;;;5015508;28;20296;-85
2020/12/10 06:07:35;;;;;;;20.80;11.35;;;2.10;99.90;;;;;;5014398;28;20200;-85
2020/12/10 06:10:03;;;;;;;22.88;11.35;;;2.20;99.90;;;;;;5015668;28;20756;-85
2020/12/10 06:12:29;;;;;;;23.38;12.27;;;2.30;99.90;;;;;;5015576;28;20627;-86
2020/12/10 06:14:59;;;;;;;23.98;12.70;;;2.30;99.90;;;;;;5015872;28;20210;-86
2020/12/10 06:17:25;;;;;;;16.30;9.93;;;2.30;99.90;;;;;;5014433;28;20595;-86
2020/12/10 06:19:52;;;;;;;19.67;10.32;;;2.20;99.90;;;;;;5015848;28;20294;-86
2020/12/10 06:22:30;;;;;;;23.30;12.00;;;2.10;99.90;;;;;;5015664;28;20234;-86
2020/12/10 06:24:57;;;;;;;16.92;10.50;;;2.10;99.90;;;;;;5015315;28;20266;-85
2020/12/10 06:27:31;;;;;;;19.38;11.85;;;2.10;99.90;;;;;;5015259;28;20246;-86
2020/12/10 06:30:14;;;;;;;20.08;11.07;;;2.10;99.90;;;;;;5015353;28;20246;-86
2020/12/10 06:32:43;;;;;;;17.48;10.80;;;2.10;99.90;;;;;;5013922;28;20282;-86
2020/12/10 06:35:25;;;;;;;19.25;10.60;;;2.10;99.90;;;;;;5015440;28;20302;-85
2020/12/10 06:37:53;;;;;;;15.80;10.23;;;2.10;99.90;;;;;;5012534;28;20211;-85
2020/12/10 06:40:31;;;;;;;19.45;9.88;;;2.10;99.90;;;;;;5014433;28;20306;-85
2020/12/10 06:42:58;;;;;;;15.77;10.25;;;2.20;99.90;;;;;;5014725;28;20213;-86
2020/12/10 06:45:34;;;;;;;19.77;9.27;;;2.20;99.90;;;;;;5023471;28;20227;-84
2020/12/10 06:48:03;;;;;;;14.25;8.55;;;2.10;99.90;;;;;;5027092;28;20282;-85
2020/12/10 06:50:30;;;;;;;13.98;8.05;;;2.10;99.90;;;;;;5030583;28;20602;-86
2020/12/10 06:53:11;;;;;;;20.48;9.52;;;2.10;99.90;;;;;;5015773;28;20226;-86
2020/12/10 06:56:04;;;;;;;17.45;9.80;;;2.00;99.90;;;;;;5015231;28;20242;-85
2020/12/10 06:58:51;;;;;;;15.73;8.73;;;2.10;99.90;;;;;;5014847;28;20231;-85
2020/12/10 07:01:26;;;;;;;13.88;8.82;;;2.10;99.90;;;;;;5014512;28;20667;-85
2020/12/10 07:03:55;;;;;;;13.07;7.85;;;2.20;99.90;;;;;;5014820;28;20321;-86
2020/12/10 07:06:22;;;;;;;12.63;9.00;;;2.20;99.90;;;;;;5014916;28;20721;-86
2020/12/10 07:09:04;;;;;;;18.30;9.93;;;2.20;99.90;;;;;;5013819;28;20200;-85
2020/12/10 07:11:32;;;;;;;15.35;9.88;;;2.20;99.90;;;;;;5014027;28;20210;-84
2020/12/10 07:13:59;;;;;;;14.70;8.55;;;2.20;99.90;;;;;;5014764;28;20214;-85
2020/12/10 07:16:32;;;;;;;15.82;9.27;;;2.20;99.90;;;;;;5013308;28;20294;-85
2020/12/10 07:18:59;;;;;;;16.48;9.10;;;2.20;99.90;;;;;;5014475;28;20294;-85
2020/12/10 07:21:25;;;;;;;15.15;10.07;;;2.20;99.90;;;;;;5014702;28;20789;-85
2020/12/10 07:23:52;;;;;;;19.35;10.85;;;2.20;99.90;;;;;;5014478;28;20298;-85
2020/12/10 07:26:19;;;;;;;16.67;9.75;;;2.30;99.90;;;;;;5014202;28;20612;-85
2020/12/10 07:28:47;;;;;;;17.83;11.48;;;2.30;99.90;;;;;;5014363;28;20286;-85
2020/12/10 07:31:18;;;;;;;17.13;9.30;;;2.30;99.90;;;;;;5014303;28;20226;-85
2020/12/10 07:33:45;;;;;;;24.35;11.50;;;2.30;99.90;;;;;;5013452;28;20211;-86
2020/12/10 07:36:11;;;;;;;18.13;9.35;;;2.30;99.90;;;;;;5014022;28;20218;-85
2020/12/10 07:38:44;;;;;;;19.27;10.70;;;2.30;99.90;;;;;;5014073;28;20235;-84
2020/12/10 07:41:10;;;;;;;17.63;11.18;;;2.30;99.90;;;;;;5013946;28;20203;-85
2020/12/10 07:43:48;;;;;;;18.45;11.40;;;2.30;99.90;;;;;;5013795;28;20296;-85
2020/12/10 07:46:14;;;;;;;18.92;10.82;;;2.30;99.90;;;;;;5013963;28;20230;-85
2020/12/10 07:48:42;;;;;;;17.92;9.18;;;2.30;99.90;;;;;;5012589;28;20247;-84
2020/12/10 07:51:09;;;;;;;20.38;11.73;;;2.30;99.90;;;;;;5014114;28;20579;-83
2020/12/10 07:53:35;;;;;;;25.05;13.27;;;2.30;99.90;;;;;;5013910;28;20286;-86
2020/12/10 07:56:03;;;;;;;15.05;10.07;;;2.30;99.90;;;;;;5013920;28;20291;-85
2020/12/10 07:58:36;;;;;;;20.38;11.95;;;2.30;99.90;;;;;;5013732;28;20227;-86
2020/12/10 08:01:06;;;;;;;19.30;11.45;;;2.30;99.90;;;;;;5013762;28;20211;-84
2020/12/10 08:03:47;;;;;;;20.60;11.45;;;2.30;99.90;;;;;;5009526;28;20207;-85
2020/12/10 08:06:16;;;;;;;20.17;11.60;;;2.30;99.90;;;;;;5013662;28;20325;-83
2020/12/10 08:08:46;;;;;;;25.73;12.48;;;2.40;99.90;;;;;;5013435;28;20290;-85
2020/12/10 08:11:15;;;;;;;19.77;10.68;;;2.40;99.90;;;;;;5015639;28;20573;-84
2020/12/10 08:13:59;;;;;;;18.35;11.35;;;2.40;99.90;;;;;;5013572;28;20227;-84
2020/12/10 08:16:36;;;;;;;17.70;10.88;;;2.50;99.90;;;;;;5011268;28;20618;-83
2020/12/10 08:19:11;;;;;;;19.67;11.40;;;2.40;99.90;;;;;;5013318;28;20203;-84
2020/12/10 08:21:38;;;;;;;21.10;11.40;;;2.40;99.90;;;;;;5013564;28;20298;-84
2020/12/10 08:24:04;;;;;;;16.33;10.35;;;2.40;99.90;;;;;;5012736;28;20633;-82
2020/12/10 08:26:30;;;;;;;18.77;11.88;;;2.50;99.90;;;;;;5012585;28;20281;-84
2020/12/10 08:28:57;;;;;;;23.42;12.05;;;2.50;99.90;;;;;;5013161;28;20207;-83
2020/12/10 08:31:26;;;;;;;20.60;11.43;;;2.50;99.90;;;;;;5013211;28;20553;-83
2020/12/10 08:33:53;;;;;;;22.60;12.18;;;2.60;99.90;;;;;;5013148;28;20626;-84
2020/12/10 08:36:24;;;;;;;22.50;13.23;;;2.60;99.90;;;;;;5013107;28;20203;-84
2020/12/10 08:38:51;;;;;;;18.25;11.50;;;2.70;99.90;;;;;;5012167;28;20570;-83
2020/12/10 08:41:24;;;;;;;15.45;10.65;;;2.70;99.90;;;;;;5012769;28;20298;-84
2020/12/10 08:43:54;;;;;;;19.08;11.52;;;2.70;99.90;;;;;;5013333;28;20246;-84
2020/12/10 08:46:20;;;;;;;19.67;11.20;;;2.70;99.90;;;;;;5012531;28;20701;-84
2020/12/10 08:48:48;;;;;;;19.85;10.77;;;2.80;99.90;;;;;;5012407;28;20734;-84
2020/12/10 08:51:14;;;;;;;21.13;10.68;;;2.90;99.90;;;;;;5013203;28;20294;-84
2020/12/10 08:53:52;;;;;;;15.43;9.77;;;2.90;99.90;;;;;;5012916;28;20254;-84
2020/12/10 08:56:22;;;;;;;18.90;10.25;;;3.20;99.90;;;;;;5012868;28;20203;-84
2020/12/10 08:58:49;;;;;;;16.52;10.50;;;3.10;99.90;;;;;;5012564;28;20251;-84
2020/12/10 09:01:15;;;;;;;12.13;8.90;;;3.10;99.90;;;;;;5012747;28;20211;-84
2020/12/10 09:03:42;;;;;;;15.38;9.38;;;3.20;99.90;;;;;;5011847;28;20717;-84
2020/12/10 09:06:09;;;;;;;15.00;10.02;;;3.20;99.90;;;;;;5012717;28;20708;-83
2020/12/10 09:08:35;;;;;;;18.13;9.88;;;3.30;99.90;;;;;;5012778;28;20294;-84
2020/12/10 09:11:02;;;;;;;23.10;11.68;;;3.20;99.90;;;;;;5012514;28;20246;-84
2020/12/10 09:13:28;;;;;;;18.13;11.23;;;3.30;99.90;;;;;;5012734;28;20290;-84
2020/12/10 09:15:55;;;;;;;21.33;10.85;;;3.30;99.90;;;;;;5009854;28;20724;-84
2020/12/10 09:18:21;;;;;;;21.63;12.63;;;3.40;99.90;;;;;;5011393;28;20298;-84
2020/12/10 09:20:47;;;;;;;24.58;12.75;;;3.40;99.90;;;;;;5013701;28;20291;-85
2020/12/10 09:23:14;;;;;;;22.50;11.82;;;3.40;99.90;;;;;;5014625;28;20290;-85
2020/12/10 09:25:41;;;;;;;25.23;12.57;;;3.40;99.90;;;;;;5012673;28;20664;-85
2020/12/10 09:28:09;;;;;;;27.35;13.35;;;3.40;99.90;;;;;;5012385;28;20210;-85
2020/12/10 09:30:36;;;;;;;18.95;12.15;;;3.40;99.90;;;;;;5012597;28;20294;-86
2020/12/10 09:33:03;;;;;;;23.08;11.82;;;3.30;99.90;;;;;;5011358;28;20302;-85
2020/12/10 09:35:30;;;;;;;20.88;11.30;;;3.30;99.90;;;;;;5014178;28;20213;-84
2020/12/10 09:37:56;;;;;;;22.05;11.50;;;3.40;99.90;;;;;;5016525;28;20286;-85
2020/12/10 09:40:24;;;;;;;16.38;9.95;;;3.30;99.90;;;;;;5016235;28;20208;-84
2020/12/10 09:42:50;;;;;;;22.55;11.30;;;3.30;99.90;;;;;;5016165;28;20775;-84
2020/12/10 09:45:18;;;;;;;24.80;12.68;;;3.30;99.90;;;;;;5016259;28;20199;-84
2020/12/10 09:47:46;;;;;;;19.02;9.02;;;3.30;99.90;;;;;;5014826;28;20322;-85
2020/12/10 09:50:20;;;;;;;12.35;8.05;;;3.50;99.90;;;;;;5016437;28;20658;-85
2020/12/10 09:52:57;;;;;;;19.60;9.93;;;3.50;99.90;;;;;;5015997;28;20569;-85
2020/12/10 09:58:08;;;;;;;10.75;6.72;;;3.70;99.90;;;;;;5004773;28;20231;-84
2020/12/10 10:00:34;;;;;;;8.10;5.43;;;3.80;99.90;;;;;;5015927;28;20558;-83
2020/12/10 10:03:06;;;;;;;10.23;6.00;;;3.80;99.90;;;;;;5014886;28;20207;-84
2020/12/10 10:05:32;;;;;;;8.20;5.82;;;3.90;99.90;;;;;;5014644;28;20210;-83
2020/12/10 10:07:59;;;;;;;8.55;5.55;;;3.80;99.90;;;;;;5015603;28;20282;-85
2020/12/10 10:10:26;;;;;;;10.40;5.90;;;3.90;99.90;;;;;;5015556;28;20742;-85
2020/12/10 10:12:53;;;;;;;9.27;5.05;;;4.00;99.90;;;;;;5015539;28;20623;-86
2020/12/10 10:15:21;;;;;;;9.75;4.75;;;4.20;99.90;;;;;;5014562;28;20235;-85
2020/12/10 10:17:48;;;;;;;9.10;5.28;;;4.20;99.90;;;;;;5014455;28;20261;-88
2020/12/10 10:20:14;;;;;;;7.05;4.85;;;4.20;99.90;;;;;;5015594;28;20226;-89
2020/12/10 10:22:41;;;;;;;7.80;4.78;;;4.40;99.90;;;;;;5015493;28;20310;-83
2020/12/10 10:25:08;;;;;;;10.40;5.47;;;4.30;99.90;;;;;;5015674;28;20199;-85
2020/12/10 10:27:36;;;;;;;8.85;5.65;;;4.40;99.90;;;;;;5015483;28;20271;-85
2020/12/10 10:30:04;;;;;;;11.43;6.10;;;4.20;99.90;;;;;;5021112;28;20263;-85
2020/12/10 10:32:31;;;;;;;9.50;4.80;;;4.10;99.90;;;;;;5031409;28;20211;-84
2020/12/10 10:34:57;;;;;;;8.43;4.85;;;4.20;99.90;;;;;;5037876;28;20191;-85
2020/12/10 10:37:23;;;;;;;10.80;6.80;;;4.40;99.90;;;;;;5036854;28;20227;-84
2020/12/10 10:39:50;;;;;;;7.35;5.30;;;4.40;99.90;;;;;;5025130;28;20374;-84
2020/12/10 10:42:16;;;;;;;7.70;6.15;;;4.20;99.90;;;;;;5016478;28;20271;-84
2020/12/10 10:44:43;;;;;;;7.53;4.57;;;4.10;99.90;;;;;;5015804;28;20299;-85
2020/12/10 10:47:10;;;;;;;8.95;5.70;;;4.20;99.90;;;;;;4994887;28;20290;-85
2020/12/10 10:49:36;;;;;;;6.47;4.57;;;4.30;99.90;;;;;;4991121;28;20279;-87
2020/12/10 10:52:03;;;;;;;10.20;6.40;;;4.20;99.90;;;;;;4995492;28;20204;-86
2020/12/10 10:54:29;;;;;;;7.53;6.32;;;4.40;99.90;;;;;;4995349;28;20203;-86
2020/12/10 10:56:57;;;;;;;12.75;7.68;;;4.20;99.90;;;;;;4995459;28;20291;-87
2020/12/10 10:59:24;;;;;;;8.82;4.95;;;4.30;99.90;;;;;;4995075;28;20228;-84
2020/12/10 11:01:51;;;;;;;9.45;5.88;;;4.30;99.90;;;;;;4994219;28;20299;-83
2020/12/10 11:04:17;;;;;;;11.98;7.43;;;4.30;99.90;;;;;;4995571;28;20731;-83
2020/12/10 11:06:45;;;;;;;11.45;6.72;;;4.30;99.90;;;;;;4996462;28;20224;-84
2020/12/10 11:09:13;;;;;;;12.55;5.55;;;4.40;99.90;;;;;;4995949;28;20200;-83
2020/12/10 11:11:39;;;;;;;12.55;7.40;;;4.40;99.90;;;;;;4991820;28;20254;-85
2020/12/10 11:14:06;;;;;;;14.38;9.13;;;4.40;99.90;;;;;;4994079;28;20201;-84
2020/12/10 11:16:32;;;;;;;16.55;9.52;;;4.40;99.90;;;;;;4994106;28;20212;-84
2020/12/10 11:19:00;;;;;;;23.30;11.15;;;4.30;99.90;;;;;;4993347;28;20200;-82
2020/12/10 11:21:27;;;;;;;18.92;11.95;;;4.30;99.90;;;;;;4993709;28;20200;-84
2020/12/10 11:23:53;;;;;;;25.90;13.23;;;4.20;99.90;;;;;;4993820;28;20206;-82
2020/12/10 11:26:20;;;;;;;15.48;9.95;;;4.20;99.90;;;;;;4994589;28;20228;-83
2020/12/10 11:28:47;;;;;;;17.35;11.50;;;4.20;99.90;;;;;;4998304;28;20673;-84
2020/12/10 11:31:13;;;;;;;15.43;9.95;;;4.30;99.90;;;;;;4998520;28;20200;-83
2020/12/10 11:33:40;;;;;;;14.82;8.85;;;4.20;99.90;;;;;;4997055;28;20204;-81
2020/12/10 11:36:07;;;;;;;13.55;9.05;;;4.10;99.90;;;;;;5013260;28;20195;-85
2020/12/10 11:38:35;;;;;;;16.73;9.82;;;4.10;99.90;;;;;;5011493;28;20231;-84
2020/12/10 11:41:04;;;;;;;15.95;9.98;;;4.10;99.90;;;;;;4994763;28;20205;-83
2020/12/10 11:43:32;;;;;;;11.98;8.98;;;4.20;99.90;;;;;;4993653;28;20200;-83
2020/12/10 11:46:01;;;;;;;20.42;11.15;;;4.20;99.90;;;;;;4993463;28;20259;-83
2020/12/10 11:48:28;;;;;;;19.77;10.60;;;4.20;99.90;;;;;;4991964;28;20288;-84
2020/12/10 11:50:54;;;;;;;18.40;8.85;;;4.20;99.90;;;;;;4992964;28;20596;-83
2020/12/10 11:53:24;;;;;;;14.15;8.05;;;4.20;99.90;;;;;;4992947;28;20614;-83
2020/12/10 11:55:50;;;;;;;16.33;9.65;;;4.10;99.90;;;;;;4992947;28;20211;-83
2020/12/10 11:58:17;;;;;;;11.50;8.63;;;4.20;99.90;;;;;;4991506;28;20422;-84
2020/12/10 12:00:43;;;;;;;15.57;9.88;;;4.00;99.90;;;;;;4990266;28;20315;-83
2020/12/10 12:03:09;;;;;;;12.25;7.75;;;4.00;99.90;;;;;;4991849;28;20228;-84
2020/12/10 12:05:36;;;;;;;13.32;8.45;;;4.00;99.90;;;;;;4993562;28;20204;-84
2020/12/10 12:08:02;;;;;;;14.82;8.73;;;3.90;99.90;;;;;;4993390;28;20232;-84
2020/12/10 12:10:29;;;;;;;12.45;8.70;;;4.00;99.90;;;;;;4992773;28;20291;-83
2020/12/10 12:12:55;;;;;;;11.23;7.32;;;4.10;99.90;;;;;;4992425;28;20617;-84
2020/12/10 12:15:22;;;;;;;14.32;7.50;;;4.30;99.90;;;;;;4992715;28;20240;-84
2020/12/10 12:17:48;;;;;;;14.85;8.43;;;4.30;99.90;;;;;;4991454;28;20228;-84
2020/12/10 12:20:15;;;;;;;13.00;6.90;;;4.10;99.90;;;;;;4992599;28;20228;-84
2020/12/10 12:22:41;;;;;;;7.43;5.68;;;4.30;99.90;;;;;;4992477;28;20640;-84
2020/12/10 12:25:08;;;;;;;11.35;6.88;;;4.30;99.90;;;;;;4992357;28;20196;-85
2020/12/10 12:27:35;;;;;;;14.27;7.38;;;4.20;99.90;;;;;;4991989;28;20252;-84
2020/12/10 12:30:02;;;;;;;13.85;7.78;;;4.30;99.90;;;;;;4993382;28;20211;-85
2020/12/10 12:32:28;;;;;;;16.08;9.88;;;4.30;99.90;;;;;;4992442;28;20228;-83
2020/12/10 12:34:55;;;;;;;14.40;9.25;;;4.40;99.90;;;;;;5004643;28;20207;-84
2020/12/10 12:37:21;;;;;;;14.80;10.10;;;4.50;99.90;;;;;;5013210;28;20203;-85
2020/12/10 12:39:48;;;;;;;14.05;9.88;;;4.50;99.90;;;;;;5013148;28;20306;-85
2020/12/10 12:42:15;;;;;;;12.50;7.90;;;4.40;99.90;;;;;;5012767;28;20294;-83
2020/12/10 12:44:42;;;;;;;17.83;10.45;;;4.40;99.90;;;;;;5012735;28;20449;-84
2020/12/10 12:47:09;;;;;;;21.13;9.55;;;4.40;99.90;;;;;;5012033;28;20572;-84